Terminal Aerodrome Forecast
Issued by NWS

Home | Current Version | Previous Version | Text Only | Print | Product List | Glossary On
Versions: 1 2 3 4 5 6 7 8 9 10 11 12 13 14 15 16 17
000
FTUS45 KFGZ 281800 AAA
TAFSEZ
TAF AMD
KSEZ 281825Z 2818/0118 17013G22KT P6SM VCSH SCT015 BKN035 OVC045
     FM282000 19015G25KT P6SM VCSH SCT015 OVC035
     FM010130 24014KT P6SM VCSH SCT020 BKN035
     FM010600 19006KT P6SM VCSH SCT010 OVC020
     FM011700 19010KT 5SM -SHRA SCT015 OVC025=

USA.gov is the U.S. government's official web portal to all federal, state and local government web resources and services.